Latest Weather Observations for Scone Airport

IDN60801

Issued at 12:05 pm EST Monday 22 September 2014 (issued every 30 minutes, with the page automatically refreshed every 10 minutes)

About weather observations | Map of weather stations | Latest weather observations for NSW | Other Formats
Station Details ID: 061363 Name: SCONE AIRPORT AWS Lat: -32.03 Lon: 150.83 Height: 221.4 m
Data from the previous 72 hours. | See also: Recent months at Scone Airport
Date/Time
EST
Temp
°C
App
Temp
°C
Dew
Point
Rel
Hum
%
Delta-T
°C
Wind Press
QNH
hPa
Press
MSL
hPa
Rain
since 9 am
mm
Dir
 
Spd
km/h
Gust
km/h
Spd
kts
Gust
kts
22/12:00pm 20.3 16.6 8.0 45 6.4 S 17 26 9 14 1028.9 1028.8 0.0
22/11:30am 19.1 15.6 5.6 41 6.6 S 13 28 7 15 1029.6 1029.5 0.0
22/11:00am 19.1 16.3 6.9 45 6.2 ESE 11 19 6 10 1030.0 1029.9 0.0
22/10:30am 17.7 14.5 6.9 49 5.4 SE 13 22 7 12 1030.6 1030.5 0.0
22/10:00am 16.5 14.1 8.5 59 4.1 SSE 11 17 6 9 1031.0 1030.8 0.0
22/09:30am 15.1 14.0 10.1 72 2.6 SW 6 9 3 5 1031.4 1031.2 0.0
22/09:00am 13.2 12.4 9.5 78 1.9 SE 4 7 2 4 1031.6 1031.4 0.0
22/08:30am 12.0 11.6 11.1 94 0.5 NE 4 9 2 5 1031.8 1031.6 0.0
22/08:00am 10.2 9.9 10.0 99 0.1 ENE 2 6 1 3 1031.7 1031.5 0.0
22/07:30am 9.4 8.5 9.3 99 0.1 NE 4 7 2 4 1031.5 1031.3 0.0
22/07:00am 8.2 7.8 8.1 99 0.0 CALM 0 0 0 0 1031.2 1031.0 0.0
22/06:30am 5.1 4.0 5.0 99 0.0 CALM 0 0 0 0 1030.5 1030.4 0.0
22/06:00am 4.0 2.7 3.9 99 0.0 CALM 0 0 0 0 1030.1 1030.0 0.0
22/05:30am 3.5 2.1 3.4 99 0.0 CALM 0 0 0 0 1029.7 1029.6 0.0
22/05:00am 3.7 2.3 3.6 99 0.0 CALM 0 0 0 0 1029.3 1029.2 0.0
22/04:30am 3.6 2.2 3.5 99 0.0 CALM 0 0 0 0 1029.0 1028.9 0.0
22/04:00am 3.6 1.8 3.5 99 0.0 WNW 2 6 1 3 1028.8 1028.7 0.0
22/03:30am 4.0 2.3 3.9 99 0.0 WNW 2 7 1 4 1028.6 1028.5 0.0
22/03:00am 4.3 3.0 3.9 97 0.2 CALM 0 0 0 0 1028.6 1028.5 0.0
22/02:30am 5.0 2.7 4.7 98 0.1 W 6 7 3 4 1028.5 1028.4 0.0
22/02:00am 5.5 4.0 5.2 98 0.1 NE 2 6 1 3 1028.8 1028.7 0.0
22/01:30am 5.9 3.7 5.3 96 0.3 NNE 6 7 3 4 1029.0 1028.9 0.0
22/01:00am 6.1 5.1 5.4 95 0.3 CALM 0 0 0 0 1029.2 1029.1 0.0
22/12:30am 6.4 4.6 5.5 94 0.4 NNE 4 6 2 3 1029.4 1029.3 0.0
22/12:00am 7.0 4.8 5.5 90 0.7 NE 6 9 3 5 1029.3 1029.2 0.0
 
Date/Time
EST
Temp
°C
App
Temp
°C
Dew
Point
Rel
Hum
%
Delta-T
°C
Wind Press
QNH
hPa
Press
MSL
hPa
Rain
since 9 am
mm
Dir
 
Spd
km/h
Gust
km/h
Spd
kts
Gust
kts
21/11:30pm 8.7 6.7 7.0 89 0.8 NE 7 11 4 6 1029.2 1029.1 0.0
21/11:00pm 10.8 7.6 8.6 86 1.1 S 15 17 8 9 1029.2 1029.1 0.0
21/10:30pm 11.6 8.5 9.0 84 1.3 S 15 17 8 9 1029.2 1029.1 0.0
21/10:00pm 11.9 8.4 8.9 82 1.5 S 17 20 9 11 1029.0 1028.9 0.0
21/09:30pm 11.6 8.7 8.1 79 1.7 S 13 15 7 8 1028.9 1028.8 0.0
21/09:00pm 12.5 9.6 8.2 75 2.1 S 13 15 7 8 1028.6 1028.5 0.0
21/08:30pm 12.6 8.9 8.1 74 2.2 S 17 20 9 11 1028.2 1028.1 0.0
21/08:00pm 13.8 9.8 8.4 70 2.7 S 19 22 10 12 1028.0 1027.8 0.0
21/07:30pm 14.1 10.1 8.1 67 3.0 S 19 22 10 12 1027.7 1027.5 0.0
21/07:00pm 14.4 11.0 7.5 63 3.4 S 15 19 8 10 1027.4 1027.2 0.0
21/06:30pm 14.6 12.2 7.2 61 3.7 S 9 13 5 7 1026.6 1026.4 0.0
21/06:00pm 16.3 12.9 7.5 56 4.4 SSE 15 20 8 11 1026.1 1025.9 0.0
21/05:30pm 17.4 13.1 6.9 50 5.3 SSE 19 26 10 14 1025.7 1025.6 0.0
21/05:00pm 18.5 13.9 6.4 45 6.0 SE 20 26 11 14 1025.5 1025.4 0.0
21/04:30pm 19.5 14.7 4.8 38 7.2 SE 19 24 10 13 1025.2 1025.1 0.0
21/04:00pm 20.0 15.1 5.3 38 7.3 ESE 20 28 11 15 1025.2 1025.1 0.0
21/03:30pm 20.2 15.0 5.4 38 7.4 ESE 22 24 12 13 1025.0 1024.9 0.0
21/03:00pm 19.8 13.5 5.8 40 7.0 SSE 28 35 15 19 1024.7 1024.6 0.0
21/02:30pm 21.4 15.7 6.5 38 7.6 S 26 37 14 20 1025.1 1025.0 0.0
21/02:00pm 20.8 16.0 7.4 42 6.9 S 22 35 12 19 1025.7 1025.6 0.0
21/01:30pm 20.1 15.5 6.4 41 6.9 S 20 32 11 17 1026.3 1026.1 0.0
21/01:00pm 20.3 16.5 7.7 44 6.5 SE 17 22 9 12 1026.9 1026.7 0.0
21/12:30pm 19.7 15.9 7.4 45 6.3 SSE 17 24 9 13 1027.2 1027.0 0.0
21/12:00pm 19.3 15.8 7.1 45 6.2 SSE 15 20 8 11 1027.6 1027.4 0.0
21/11:30am 18.1 15.0 7.2 49 5.5 SE 13 20 7 11 1028.1 1028.0 0.0
21/11:00am 18.1 14.0 7.8 51 5.3 ESE 19 28 10 15 1028.5 1028.4 0.0
21/10:30am 17.3 14.5 8.4 56 4.6 S 13 20 7 11 1028.8 1028.7 0.0
21/10:00am 16.3 13.4 8.0 58 4.2 ESE 13 22 7 12 1029.1 1029.0 0.0
21/09:30am 15.3 12.6 8.8 65 3.3 SSE 13 19 7 10 1029.1 1029.0 0.0
21/09:00am 14.1 11.6 8.1 67 3.0 S 11 19 6 10 1029.2 1029.1 0.0
21/08:30am 13.3 12.3 7.5 68 2.9 S 2 7 1 4 1029.2 1029.1 0.0
21/08:00am 11.3 10.7 7.2 76 2.0 CALM 0 0 0 0 1029.0 1028.9 0.0
21/07:30am 8.5 7.7 6.5 87 0.9 CALM 0 0 0 0 1028.9 1028.8 0.0
21/07:00am 6.3 5.4 6.2 99 0.0 CALM 0 6 0 3 1028.5 1028.4 0.0
21/06:30am 4.0 2.7 3.9 99 0.0 CALM 0 0 0 0 1028.3 1028.2 0.0
21/06:00am 3.4 1.5 3.1 98 0.1 N 2 7 1 4 1027.9 1027.7 0.0
21/05:30am 3.6 2.2 3.3 98 0.1 CALM 0 0 0 0 1027.5 1027.3 0.0
21/05:00am 3.2 1.7 2.8 97 0.2 CALM 0 0 0 0 1027.3 1027.1 0.0
21/04:30am 4.3 1.9 4.2 99 0.0 NNW 6 6 3 3 1027.1 1026.9 0.0
21/04:00am 3.5 0.7 2.9 96 0.2 NNE 7 9 4 5 1026.6 1026.4 0.0
21/03:30am 3.9 1.3 3.2 95 0.3 E 6 7 3 4 1026.6 1026.4 0.0
21/03:00am 4.0 1.4 3.3 95 0.3 ENE 6 9 3 5 1026.7 1026.5 0.0
21/02:30am 5.0 2.5 4.0 93 0.4 ENE 6 9 3 5 1026.8 1026.6 0.0
21/02:00am 6.4 3.9 4.9 90 0.7 NE 7 9 4 5 1027.1 1026.9 0.0
21/01:30am 8.4 5.7 5.5 82 1.3 S 9 15 5 8 1027.1 1026.9 0.0
21/01:00am 9.7 6.9 6.8 82 1.4 S 11 15 6 8 1027.3 1027.1 0.0
21/12:30am 9.9 6.1 7.5 85 1.2 S 17 19 9 10 1027.2 1027.0 0.0
21/12:00am 10.0 6.1 7.3 83 1.3 S 17 20 9 11 1027.1 1026.9 0.0
 
Date/Time
EST
Temp
°C
App
Temp
°C
Dew
Point
Rel
Hum
%
Delta-T
°C
Wind Press
QNH
hPa
Press
MSL
hPa
Rain
since 9 am
mm
Dir
 
Spd
km/h
Gust
km/h
Spd
kts
Gust
kts
20/11:30pm 10.4 6.2 7.5 82 1.4 S 19 22 10 12 1026.8 1026.6 0.0
20/11:00pm 10.8 6.5 7.9 82 1.4 S 20 26 11 14 1026.7 1026.5 0.0
20/10:30pm 10.9 7.1 7.6 80 1.6 S 17 22 9 12 1026.6 1026.4 0.0
20/10:00pm 11.2 7.4 7.7 79 1.7 S 17 20 9 11 1026.3 1026.1 0.0
20/09:30pm 11.9 7.2 7.8 76 2.0 S 22 28 12 15 1026.2 1026.0 0.0
20/09:00pm 11.8 7.7 7.7 76 2.0 S 19 24 10 13 1025.8 1025.7 0.0
20/08:30pm 12.5 8.2 7.8 73 2.3 S 20 28 11 15 1025.4 1025.3 0.0
20/08:00pm 12.7 8.2 7.0 68 2.8 S 20 24 11 13 1025.1 1025.0 0.0
20/07:30pm 12.6 8.3 5.1 60 3.5 S 17 19 9 10 1024.6 1024.5 0.0
20/07:00pm 13.4 9.2 4.0 53 4.3 S 15 19 8 10 1024.0 1023.8 0.0
20/06:30pm 14.1 10.5 3.0 47 5.0 S 11 15 6 8 1023.3 1023.1 0.0
20/06:00pm 14.0 10.2 1.6 43 5.4 SE 11 13 6 7 1022.7 1022.5 0.0
20/05:30pm 16.8 12.5 1.3 35 6.9 SSE 13 17 7 9 1022.3 1022.1 0.0
20/05:00pm 18.9 13.5 1.4 31 7.9 S 19 24 10 13 1021.9 1021.7 0.0
20/04:30pm 19.6 14.0 0.1 27 8.7 S 19 24 10 13 1021.5 1021.3 0.0
20/04:00pm 20.2 14.2 1.1 28 8.7 S 22 32 12 17 1021.2 1021.1 0.0
20/03:30pm 20.2 14.5 0.6 27 8.9 SSE 20 28 11 15 1020.9 1020.8 0.0
20/03:00pm 20.7 15.6 0.5 26 9.1 S 17 28 9 15 1020.8 1020.7 0.0
20/02:30pm 20.9 16.6 0.7 26 9.2 S 13 24 7 13 1021.0 1020.9 0.0
20/02:00pm 20.7 16.4 1.1 27 9.0 SSE 13 22 7 12 1021.1 1021.0 0.0
20/01:30pm 19.9 15.2 -1.8 23 9.3 ESE 13 22 7 12 1021.4 1021.2 0.0
20/01:00pm 19.5 14.7 -2.2 23 9.2 S 13 19 7 10 1021.7 1021.5 0.0
20/12:30pm 20.0 16.2 1.9 30 8.4 SE 11 19 6 10 1021.9 1021.7 0.0
20/12:00pm 19.1 15.6 1.1 30 8.1 SE 9 15 5 8 1022.2 1022.0 0.0
20/11:30am 18.1 14.6 1.2 32 7.6 SSE 9 20 5 11 1022.6 1022.4 0.0
20/11:00am 17.5 13.6 1.1 33 7.3 S 11 17 6 9 1023.1 1022.9 0.0
20/10:30am 16.9 13.8 1.4 35 6.9 S 7 13 4 7 1023.3 1023.1 0.0
20/10:00am 15.3 12.0 2.5 42 5.8 E 9 11 5 6 1023.6 1023.4 0.0
20/09:30am 14.2 11.3 2.5 45 5.2 E 7 13 4 7 1023.9 1023.7 0.0
20/09:00am 12.7 10.5 3.1 52 4.3 SE 4 7 2 4 1024.0 1023.8 0.0
20/08:30am 10.2 8.7 2.8 60 3.2 CALM 0 6 0 3 1023.9 1023.7 0.0
20/08:00am 7.6 5.6 2.5 70 2.1 SSW 2 6 1 3 1024.0 1023.8 0.0
20/07:30am 5.1 2.7 2.1 81 1.2 WSW 4 6 2 3 1023.9 1023.7 0.0
20/07:00am 2.8 0.9 0.5 85 0.9 CALM 0 0 0 0 1023.4 1023.2 0.0
20/06:30am 1.1 -0.8 0.4 95 0.3 CALM 0 0 0 0 1023.0 1022.8 0.0
20/06:00am -0.7 -2.9 -1.4 95 0.2 CALM 0 0 0 0 1022.5 1022.3 0.0
20/05:30am -0.7 -2.9 -1.8 92 0.4 CALM 0 0 0 0 1021.9 1021.7 0.0
20/05:00am -0.4 -2.9 -1.2 94 0.3 WNW 2 6 1 3 1021.5 1021.3 0.0
20/04:30am 0.2 -1.9 -0.6 94 0.3 CALM 0 6 0 3 1021.2 1021.1 0.0
20/04:00am 0.1 -2.1 -1.2 91 0.5 CALM 0 0 0 0 1020.9 1020.8 0.0
20/03:30am 0.7 -2.5 -0.6 91 0.5 W 6 7 3 4 1020.8 1020.7 0.0
20/03:00am 0.3 -1.9 -1.3 89 0.6 CALM 0 0 0 0 1020.8 1020.7 0.0
20/02:30am 0.9 -1.2 -0.7 89 0.6 CALM 0 0 0 0 1020.9 1020.8 0.0
20/02:00am 0.9 -1.2 -1.0 87 0.7 CALM 0 0 0 0 1020.9 1020.8 0.0
20/01:30am 2.1 -1.0 0.0 86 0.8 WSW 6 7 3 4 1021.0 1020.9 0.0
20/01:00am 2.0 -0.1 -0.7 82 1.0 CALM 0 0 0 0 1021.0 1020.9 0.0
20/12:30am 2.0 0.0 -0.1 86 0.8 CALM 0 0 0 0 1021.2 1021.1 0.0
20/12:00am 2.4 0.4 0.1 85 0.9 CALM 0 0 0 0 1021.2 1021.1 0.0
 
Date/Time
EST
Temp
°C
App
Temp
°C
Dew
Point
Rel
Hum
%
Delta-T
°C
Wind Press
QNH
hPa
Press
MSL
hPa
Rain
since 9 am
mm
Dir
 
Spd
km/h
Gust
km/h
Spd
kts
Gust
kts
19/11:30pm 1.9 -0.2 -0.7 83 0.9 CALM 0 0 0 0 1021.4 1021.2 0.0
19/11:00pm 3.2 0.2 0.8 84 0.9 ENE 6 9 3 5 1021.1 1021.0 0.0
19/10:30pm 4.1 2.3 1.0 80 1.2 CALM 0 0 0 0 1021.4 1021.2 0.0
19/10:00pm 4.5 2.6 0.8 77 1.4 CALM 0 0 0 0 1021.2 1021.1 0.0
19/09:30pm 5.0 3.1 0.4 72 1.8 CALM 0 0 0 0 1021.2 1021.1 0.0
19/09:00pm 6.8 4.3 1.3 68 2.2 N 4 7 2 4 1021.1 1021.0 0.0
19/08:30pm 6.6 4.8 1.1 68 2.2 CALM 0 7 0 4 1021.1 1021.0 0.0
19/08:00pm 7.2 5.4 1.3 66 2.4 CALM 0 0 0 0 1020.9 1020.8 0.0
19/07:30pm 8.5 5.4 1.4 61 2.9 WNW 7 9 4 5 1020.6 1020.5 0.0
19/07:00pm 10.0 7.8 0.9 53 3.8 NNE 2 7 1 4 1020.2 1020.0 0.0
19/06:30pm 11.1 9.5 2.2 54 3.9 CALM 0 0 0 0 1019.7 1019.5 0.0
19/06:00pm 12.7 9.5 0.8 44 5.1 S 7 7 4 4 1019.3 1019.1 0.0
19/05:30pm 15.4 12.3 1.2 38 6.3 S 7 9 4 5 1019.0 1018.8 0.0
19/05:00pm 16.9 13.0 -1.2 29 7.7 SSE 9 11 5 6 1018.8 1018.6 0.0
19/04:30pm 17.3 13.4 -1.4 28 7.9 SSE 9 11 5 6 1018.6 1018.4 0.0
19/04:00pm 17.1 13.1 -2.0 27 8.0 S 9 17 5 9 1018.5 1018.3 0.0
19/03:30pm 18.2 14.2 -2.1 25 8.6 SSW 9 17 5 9 1018.3 1018.1 0.0
19/03:00pm 18.4 15.1 -1.4 26 8.5 S 6 11 3 6 1018.6 1018.4 0.0
19/02:30pm 18.1 14.9 -0.2 29 8.0 N 6 11 3 6 1018.8 1018.6 0.0
19/02:00pm 17.2 13.9 -0.1 31 7.5 NNW 7 11 4 6 1019.1 1018.9 0.0
19/01:30pm 16.5 12.7 -0.7 31 7.3 N 9 15 5 8 1019.5 1019.3 0.0
19/01:00pm 16.4 12.6 -0.8 31 7.3 SSW 9 13 5 7 1019.8 1019.6 0.0
19/12:30pm 16.1 12.5 0.7 35 6.7 W 9 15 5 8 1020.2 1020.0 0.0

Other Formats:

Comma delimited format used in spreadsheet applications
http://www.bom.gov.au/fwo/IDN60801/IDN60801.95758.axf

JavaScript Object Notation format (JSON) in row-major order
http://www.bom.gov.au/fwo/IDN60801/IDN60801.95758.json